Time;durP1;ratioP1;P1;durP2;ratioP2;P2;SDS_P1;SDS_P2;PMS_P1;PMS_P2;Temp;Humidity;BMP_temperature;BMP_pressure;BME280_temperature;BME280_humidity;BME280_pressure;Samples;Min_cycle;Max_cycle;Signal;HPM_P1;HPM_P2
2023/07/26 00:00:00;;;;;;;12.67;5.40;;;15.80;98.00;;;;;;5034621;28;20471;-68
2023/07/26 00:02:28;;;;;;;10.20;4.80;;;15.60;98.00;;;;;;5034829;28;20462;-68
2023/07/26 00:04:56;;;;;;;11.60;5.40;;;15.50;98.00;;;;;;5034358;28;20466;-67
2023/07/26 00:07:23;;;;;;;11.97;5.80;;;15.50;98.00;;;;;;5034708;28;20454;-68
2023/07/26 00:09:50;;;;;;;10.40;5.67;;;15.50;98.00;;;;;;5034387;28;20460;-68
2023/07/26 00:12:18;;;;;;;12.17;6.07;;;15.50;98.00;;;;;;5034413;28;20489;-68
2023/07/26 00:14:45;;;;;;;11.63;4.47;;;15.50;98.00;;;;;;5034375;28;20485;-68
2023/07/26 00:17:12;;;;;;;9.83;5.13;;;15.60;98.00;;;;;;5034257;28;20940;-68
2023/07/26 00:19:39;;;;;;;14.57;5.30;;;15.60;98.00;;;;;;5033818;28;20466;-68
2023/07/26 00:22:08;;;;;;;9.73;5.17;;;15.50;98.00;;;;;;5034308;28;20472;-68
2023/07/26 00:24:35;;;;;;;11.47;5.47;;;15.40;98.00;;;;;;5034303;28;20453;-68
2023/07/26 00:27:02;;;;;;;11.87;5.87;;;15.50;98.00;;;;;;5016550;28;20457;-69
2023/07/26 00:29:30;;;;;;;10.93;5.40;;;15.50;98.00;;;;;;5034123;28;20831;-68
2023/07/26 00:31:57;;;;;;;10.63;5.60;;;15.50;98.00;;;;;;5034091;28;20853;-68
2023/07/26 00:34:24;;;;;;;12.37;5.60;;;15.50;98.00;;;;;;5034163;28;20469;-67
2023/07/26 00:36:52;;;;;;;14.13;5.67;;;15.40;98.00;;;;;;5034253;28;20456;-68
2023/07/26 00:39:20;;;;;;;12.10;5.77;;;15.50;98.00;;;;;;5034091;28;20461;-68
2023/07/26 00:41:47;;;;;;;10.07;5.87;;;15.50;98.00;;;;;;5034125;28;20792;-68
2023/07/26 00:44:14;;;;;;;12.07;6.20;;;15.60;98.00;;;;;;5033930;28;20875;-69
2023/07/26 00:46:41;;;;;;;9.27;5.50;;;15.60;98.00;;;;;;5016664;28;20457;-68
2023/07/26 00:49:09;;;;;;;13.27;5.43;;;15.60;98.00;;;;;;5016496;28;20458;-68
2023/07/26 00:51:40;;;;;;;11.30;5.40;;;15.70;98.00;;;;;;5033828;28;20490;-68
2023/07/26 00:54:09;;;;;;;10.63;6.00;;;15.70;98.00;;;;;;5033625;28;20465;-68
2023/07/26 00:56:37;;;;;;;15.17;6.70;;;15.70;98.00;;;;;;5033577;28;20454;-68
2023/07/26 00:59:05;;;;;;;11.03;5.17;;;15.70;98.00;;;;;;5033319;28;20466;-68
2023/07/26 01:01:32;;;;;;;9.80;5.17;;;15.70;98.00;;;;;;5016098;28;20459;-67
2023/07/26 01:03:59;;;;;;;12.43;6.00;;;15.70;98.00;;;;;;5033499;28;20455;-68
2023/07/26 01:06:35;;;;;;;15.63;5.57;;;15.70;98.00;;;;;;5033369;28;20457;-69
2023/07/26 01:09:07;;;;;;;11.60;5.50;;;15.70;98.00;;;;;;5033390;28;20456;-67
2023/07/26 01:11:41;;;;;;;11.57;5.90;;;15.80;98.00;;;;;;5033470;28;20489;-67
2023/07/26 01:14:17;;;;;;;11.60;6.23;;;15.80;98.00;;;;;;5033556;28;20861;-68
2023/07/26 01:16:45;;;;;;;8.50;5.20;;;15.80;98.00;;;;;;5015705;28;20527;-68
2023/07/26 01:19:14;;;;;;;12.00;5.97;;;15.80;98.00;;;;;;5033367;28;20459;-68
2023/07/26 01:21:43;;;;;;;12.73;5.90;;;15.70;98.00;;;;;;5033484;28;20478;-68
2023/07/26 01:24:10;;;;;;;13.73;7.23;;;15.60;98.00;;;;;;5032922;28;20469;-69
2023/07/26 01:26:39;;;;;;;12.80;6.33;;;15.60;98.00;;;;;;5033275;28;20450;-68
2023/07/26 01:29:06;;;;;;;12.47;6.60;;;15.60;98.00;;;;;;5033237;28;20867;-68
2023/07/26 01:31:33;;;;;;;14.40;7.10;;;15.60;98.00;;;;;;5032264;28;20562;-68
2023/07/26 01:34:01;;;;;;;14.87;6.73;;;15.60;98.00;;;;;;5032934;28;20466;-68
2023/07/26 01:36:30;;;;;;;14.87;6.20;;;15.70;98.00;;;;;;5033262;28;20835;-68
2023/07/26 01:38:59;;;;;;;14.20;6.70;;;15.70;98.00;;;;;;5033014;28;20458;-67
2023/07/26 01:41:27;;;;;;;15.27;7.00;;;15.70;98.00;;;;;;5033284;28;20446;-67
2023/07/26 01:43:54;;;;;;;13.50;6.20;;;15.60;98.00;;;;;;5032900;28;20843;-68
2023/07/26 01:46:21;;;;;;;13.63;6.20;;;15.60;98.00;;;;;;5032772;28;20450;-68
2023/07/26 01:48:48;;;;;;;11.93;6.03;;;15.70;98.00;;;;;;5032761;28;20473;-68
2023/07/26 01:51:15;;;;;;;17.10;6.60;;;15.60;98.00;;;;;;5032504;28;20481;-68
2023/07/26 01:53:43;;;;;;;14.47;6.77;;;15.70;98.00;;;;;;5032390;28;20862;-68
2023/07/26 01:56:11;;;;;;;13.93;6.10;;;15.60;98.00;;;;;;5032473;28;20829;-67
2023/07/26 01:58:39;;;;;;;13.97;5.97;;;15.40;98.00;;;;;;5032202;28;20472;-69
2023/07/26 02:01:07;;;;;;;11.87;5.90;;;15.40;98.00;;;;;;5032323;28;20519;-68
2023/07/26 02:03:34;;;;;;;13.33;5.77;;;15.30;98.00;;;;;;5032317;28;20449;-68
2023/07/26 02:06:01;;;;;;;10.80;5.33;;;15.30;98.00;;;;;;5032535;28;21042;-67
2023/07/26 02:08:28;;;;;;;11.60;5.67;;;15.40;98.00;;;;;;5032339;28;20516;-68
2023/07/26 02:10:55;;;;;;;10.77;5.63;;;15.30;98.00;;;;;;5032179;28;20461;-68
2023/07/26 02:13:24;;;;;;;10.37;5.87;;;15.30;98.00;;;;;;5032395;28;20455;-68
2023/07/26 02:15:51;;;;;;;8.90;4.70;;;15.20;98.00;;;;;;5032238;28;20857;-68
2023/07/26 02:18:18;;;;;;;13.53;5.43;;;15.20;98.00;;;;;;5014863;28;20468;-67
2023/07/26 02:20:45;;;;;;;7.53;4.07;;;15.40;98.00;;;;;;5032322;28;20454;-69
2023/07/26 02:23:12;;;;;;;8.33;4.40;;;15.20;98.00;;;;;;5032351;28;21009;-69
2023/07/26 02:25:40;;;;;;;6.83;4.27;;;15.30;98.00;;;;;;5032242;28;20571;-68
2023/07/26 02:28:08;;;;;;;7.60;4.30;;;15.30;98.00;;;;;;5032206;28;20454;-68
2023/07/26 02:30:36;;;;;;;8.03;4.47;;;15.20;98.00;;;;;;5014693;28;20539;-68
2023/07/26 02:33:05;;;;;;;8.47;4.70;;;15.20;98.00;;;;;;5032297;28;20478;-68
2023/07/26 02:35:32;;;;;;;9.30;4.67;;;15.10;98.00;;;;;;5031642;28;20458;-68
2023/07/26 02:37:59;;;;;;;8.40;3.80;;;15.10;98.00;;;;;;5014424;28;20468;-67
2023/07/26 02:40:26;;;;;;;8.20;4.50;;;15.10;98.00;;;;;;5014560;28;20458;-68
2023/07/26 02:42:53;;;;;;;7.67;4.33;;;15.10;98.00;;;;;;5031678;28;20462;-68
2023/07/26 02:45:21;;;;;;;9.53;4.80;;;15.10;98.00;;;;;;5014337;28;20494;-68
2023/07/26 02:47:49;;;;;;;7.03;3.90;;;15.20;98.00;;;;;;5014243;28;20458;-68
2023/07/26 02:50:18;;;;;;;8.47;3.83;;;15.20;98.00;;;;;;5031841;28;20462;-68
2023/07/26 02:52:45;;;;;;;7.10;3.90;;;15.10;98.00;;;;;;5031691;28;20981;-67
2023/07/26 02:55:14;;;;;;;6.13;3.37;;;15.10;98.00;;;;;;5031799;28;20493;-68
2023/07/26 02:57:41;;;;;;;6.47;3.80;;;15.10;98.00;;;;;;5031514;28;20451;-68
2023/07/26 03:00:10;;;;;;;6.83;3.70;;;15.10;98.00;;;;;;5031663;28;20469;-68
2023/07/26 03:02:37;;;;;;;6.53;3.67;;;15.10;98.00;;;;;;5031638;28;20458;-67
2023/07/26 03:05:06;;;;;;;5.03;3.30;;;15.00;98.00;;;;;;5031650;28;20453;-68
2023/07/26 03:07:33;;;;;;;5.97;3.73;;;15.00;98.00;;;;;;5031672;28;20457;-68
2023/07/26 03:10:00;;;;;;;11.30;4.57;;;15.00;98.00;;;;;;5014038;28;20469;-68
2023/07/26 03:12:28;;;;;;;8.13;3.77;;;14.90;98.00;;;;;;5031628;28;20490;-69
2023/07/26 03:14:55;;;;;;;7.20;3.87;;;14.80;98.00;;;;;;5014080;28;21093;-68
2023/07/26 03:17:22;;;;;;;7.57;4.23;;;14.90;98.00;;;;;;5031612;28;20465;-68
2023/07/26 03:19:50;;;;;;;6.80;3.80;;;14.90;98.00;;;;;;5031703;28;20901;-68
2023/07/26 03:22:18;;;;;;;6.60;3.30;;;14.90;98.00;;;;;;5013267;28;20461;-68
2023/07/26 03:24:45;;;;;;;5.17;3.23;;;14.90;98.00;;;;;;5031711;28;20460;-67
2023/07/26 03:27:12;;;;;;;6.57;3.63;;;14.80;98.00;;;;;;5031740;28;20454;-68
2023/07/26 03:29:43;;;;;;;6.43;3.70;;;14.70;98.00;;;;;;5031783;28;20572;-67
2023/07/26 03:32:10;;;;;;;9.67;4.23;;;14.80;98.00;;;;;;5031562;28;20489;-68
2023/07/26 03:34:37;;;;;;;7.03;3.50;;;14.80;98.00;;;;;;5031736;28;20464;-68
2023/07/26 03:37:04;;;;;;;9.23;4.13;;;14.90;98.00;;;;;;5031235;28;20462;-68
2023/07/26 03:39:33;;;;;;;9.10;4.23;;;14.80;98.00;;;;;;5031438;28;20454;-68
2023/07/26 03:42:01;;;;;;;5.77;3.87;;;14.90;98.00;;;;;;5031414;28;20459;-68
2023/07/26 03:44:28;;;;;;;7.30;3.83;;;14.90;98.00;;;;;;5013557;28;20473;-68
2023/07/26 03:46:55;;;;;;;6.37;3.50;;;14.90;98.00;;;;;;5031260;28;20460;-68
2023/07/26 03:49:22;;;;;;;10.80;3.77;;;14.80;98.00;;;;;;5013481;28;20461;-67
2023/07/26 03:51:50;;;;;;;7.87;4.30;;;14.90;98.00;;;;;;5031250;28;20488;-67
2023/07/26 03:54:17;;;;;;;6.10;3.90;;;14.90;98.00;;;;;;5031569;28;20456;-67
2023/07/26 03:56:46;;;;;;;8.30;3.77;;;14.60;98.00;;;;;;5034719;28;20451;-69
2023/07/26 03:59:13;;;;;;;9.20;4.67;;;14.60;98.00;;;;;;5034667;28;20472;-68
2023/07/26 04:01:40;;;;;;;6.60;3.60;;;14.40;98.00;;;;;;5034939;28;20560;-68
2023/07/26 04:04:07;;;;;;;11.67;4.80;;;14.20;98.00;;;;;;5034593;28;20457;-68
2023/07/26 04:06:34;;;;;;;7.77;4.10;;;14.10;98.00;;;;;;5034496;28;20450;-68
2023/07/26 04:09:01;;;;;;;10.03;4.33;;;14.10;98.00;;;;;;5034752;28;20834;-68
2023/07/26 04:11:28;;;;;;;7.00;4.67;;;14.10;98.00;;;;;;5034474;28;20944;-68
2023/07/26 04:13:57;;;;;;;13.27;5.97;;;14.20;98.00;;;;;;5034634;28;20478;-68
2023/07/26 04:16:24;;;;;;;7.43;4.07;;;14.20;98.00;;;;;;5034476;28;20520;-68
2023/07/26 04:18:52;;;;;;;8.50;4.67;;;14.30;98.00;;;;;;5034506;28;20457;-68
2023/07/26 04:21:19;;;;;;;8.80;4.37;;;14.40;98.00;;;;;;5034604;28;20553;-68
2023/07/26 04:23:47;;;;;;;7.90;4.73;;;14.30;98.00;;;;;;5017089;28;20470;-68
2023/07/26 04:26:14;;;;;;;8.63;4.60;;;14.40;98.00;;;;;;5034640;28;20465;-67
2023/07/26 04:28:41;;;;;;;8.10;4.37;;;14.30;98.00;;;;;;5034365;28;20458;-68
2023/07/26 04:31:10;;;;;;;8.80;4.60;;;14.40;98.00;;;;;;5034035;28;20457;-68
2023/07/26 04:33:37;;;;;;;9.33;4.37;;;14.40;98.00;;;;;;5034242;28;20490;-68
2023/07/26 04:36:04;;;;;;;6.67;3.80;;;14.30;98.00;;;;;;5016368;28;20454;-68
2023/07/26 04:38:31;;;;;;;6.43;4.13;;;14.40;98.00;;;;;;5034071;28;20458;-68
2023/07/26 04:40:58;;;;;;;8.87;4.23;;;14.40;98.00;;;;;;5034059;28;20459;-68
2023/07/26 04:43:27;;;;;;;6.60;3.70;;;14.40;98.00;;;;;;5033972;28;20952;-67
2023/07/26 04:45:54;;;;;;;7.67;4.20;;;14.40;98.00;;;;;;5016717;28;20934;-68
2023/07/26 04:48:22;;;;;;;4.90;3.20;;;14.50;98.00;;;;;;5033489;28;20495;-68
2023/07/26 04:50:50;;;;;;;5.30;3.30;;;14.50;98.00;;;;;;5033714;28;21036;-68
2023/07/26 04:53:17;;;;;;;6.80;3.80;;;14.60;98.00;;;;;;5033862;28;20489;-68
2023/07/26 04:55:46;;;;;;;9.27;4.20;;;14.80;98.00;;;;;;5033699;28;20460;-67
2023/07/26 04:58:13;;;;;;;8.50;4.37;;;15.00;98.00;;;;;;5033368;28;20470;-67
2023/07/26 05:00:42;;;;;;;9.37;4.47;;;15.00;98.00;;;;;;5033568;28;20462;-68
2023/07/26 05:03:10;;;;;;;8.47;3.97;;;15.10;98.00;;;;;;5033940;28;20465;-68
2023/07/26 05:05:39;;;;;;;10.37;4.67;;;15.00;98.00;;;;;;5033534;28;20512;-67
2023/07/26 05:08:07;;;;;;;7.20;4.07;;;15.20;98.00;;;;;;5033787;28;20469;-68
2023/07/26 05:10:35;;;;;;;10.13;5.30;;;15.20;98.00;;;;;;5033379;28;20457;-67
2023/07/26 05:13:02;;;;;;;7.03;4.07;;;15.00;98.00;;;;;;5033546;28;20491;-67
2023/07/26 05:15:29;;;;;;;8.03;4.37;;;15.00;98.00;;;;;;5033514;28;20466;-68
2023/07/26 05:17:56;;;;;;;6.83;4.00;;;15.10;98.00;;;;;;5033426;28;20465;-68
2023/07/26 05:20:23;;;;;;;9.70;4.50;;;15.20;98.00;;;;;;5015940;28;20520;-68
2023/07/26 05:22:52;;;;;;;8.10;4.03;;;15.30;98.00;;;;;;5033367;28;20516;-68
2023/07/26 05:25:20;;;;;;;6.83;4.10;;;15.40;98.00;;;;;;5032806;28;20489;-69
2023/07/26 05:27:47;;;;;;;8.57;4.37;;;15.50;98.00;;;;;;5033021;28;20995;-67
2023/07/26 05:30:18;;;;;;;6.90;4.40;;;15.30;98.00;;;;;;5015397;28;20517;-67
2023/07/26 05:32:45;;;;;;;6.90;4.00;;;15.30;98.00;;;;;;5033043;28;20571;-67
2023/07/26 05:35:13;;;;;;;6.40;3.90;;;15.40;98.00;;;;;;5032952;28;20496;-69
2023/07/26 05:37:40;;;;;;;7.30;3.80;;;15.40;98.00;;;;;;5032897;28;20506;-68
2023/07/26 05:40:12;;;;;;;6.87;3.70;;;15.40;98.00;;;;;;5032974;28;21149;-68
2023/07/26 05:42:38;;;;;;;6.33;3.63;;;15.40;98.00;;;;;;5032782;28;20466;-68
2023/07/26 05:45:06;;;;;;;6.30;3.70;;;15.50;98.00;;;;;;5032753;28;20459;-69
2023/07/26 05:47:37;;;;;;;6.17;4.00;;;15.60;98.00;;;;;;5032720;28;20454;-68
2023/07/26 05:50:05;;;;;;;6.63;4.10;;;15.60;98.00;;;;;;5032708;28;20550;-70
2023/07/26 05:52:32;;;;;;;6.00;3.83;;;15.60;98.00;;;;;;5032715;28;20492;-68
2023/07/26 05:54:59;;;;;;;5.43;4.00;;;15.60;98.00;;;;;;5032604;28;20449;-68
2023/07/26 05:57:28;;;;;;;6.70;4.23;;;15.70;98.00;;;;;;5032907;28;20482;-68
2023/07/26 05:59:55;;;;;;;7.00;4.20;;;15.70;98.00;;;;;;5032533;28;20604;-67
2023/07/26 06:02:23;;;;;;;8.47;4.50;;;15.60;98.00;;;;;;5015239;28;20470;-68
2023/07/26 06:04:50;;;;;;;6.20;3.83;;;15.60;98.00;;;;;;5032495;28;20807;-68
2023/07/26 06:07:17;;;;;;;5.60;3.60;;;15.60;98.00;;;;;;5032540;28;20957;-63
2023/07/26 06:09:45;;;;;;;8.63;4.00;;;15.60;98.00;;;;;;5032338;28;20461;-63
2023/07/26 06:12:12;;;;;;;8.10;4.17;;;15.70;98.00;;;;;;5032552;28;20464;-63
2023/07/26 06:14:41;;;;;;;5.33;3.37;;;15.70;98.00;;;;;;5032516;28;20452;-63
2023/07/26 06:17:08;;;;;;;8.40;4.13;;;15.70;98.00;;;;;;5031919;28;20465;-63
2023/07/26 06:19:36;;;;;;;5.80;4.17;;;15.60;98.00;;;;;;5032119;28;20469;-63
2023/07/26 06:22:05;;;;;;;8.63;4.20;;;15.70;98.00;;;;;;5032165;28;20509;-63
2023/07/26 06:24:32;;;;;;;9.03;4.40;;;15.80;98.00;;;;;;5014659;28;20471;-63
2023/07/26 06:26:59;;;;;;;7.03;3.87;;;15.90;98.00;;;;;;5032080;28;20455;-63
2023/07/26 06:29:26;;;;;;;7.43;4.03;;;16.00;98.00;;;;;;5031657;28;20516;-63
2023/07/26 06:31:54;;;;;;;7.20;4.40;;;16.00;98.00;;;;;;5031893;28;20956;-63
2023/07/26 06:34:22;;;;;;;8.87;4.20;;;15.90;98.00;;;;;;5031881;28;20573;-63
2023/07/26 06:36:49;;;;;;;6.80;3.63;;;15.90;98.00;;;;;;5031829;28;20461;-63
2023/07/26 06:39:16;;;;;;;11.00;4.47;;;15.90;98.00;;;;;;5032003;28;20462;-63
2023/07/26 06:41:43;;;;;;;5.73;3.70;;;16.00;98.00;;;;;;5014335;28;20808;-63
2023/07/26 06:44:10;;;;;;;7.57;4.37;;;16.00;98.00;;;;;;5031999;28;20461;-63
2023/07/26 06:46:38;;;;;;;6.73;3.80;;;16.00;98.00;;;;;;5031389;28;20460;-63
2023/07/26 06:49:10;;;;;;;7.13;4.17;;;16.10;98.00;;;;;;5014706;28;20462;-63
2023/07/26 06:51:37;;;;;;;5.40;3.70;;;16.30;98.00;;;;;;5031939;28;20467;-63
2023/07/26 06:54:04;;;;;;;7.20;3.70;;;16.20;98.00;;;;;;5032030;28;20485;-63
2023/07/26 06:56:31;;;;;;;6.47;3.90;;;16.20;98.00;;;;;;5031863;28;20960;-63
2023/07/26 06:58:58;;;;;;;7.43;3.90;;;16.10;98.00;;;;;;5031755;28;20469;-63
2023/07/26 07:01:25;;;;;;;5.63;3.60;;;16.20;98.00;;;;;;5031962;28;20458;-63
2023/07/26 07:03:52;;;;;;;6.40;3.87;;;16.20;98.00;;;;;;5031888;28;20457;-63
2023/07/26 07:06:21;;;;;;;4.63;3.30;;;16.30;98.00;;;;;;5031982;28;20461;-63
2023/07/26 07:08:48;;;;;;;5.63;3.53;;;16.40;98.00;;;;;;5045214;28;20461;-63
2023/07/26 07:11:18;;;;;;;6.20;4.00;;;16.40;98.00;;;;;;5051603;28;20939;-63
2023/07/26 07:13:45;;;;;;;6.80;3.50;;;16.50;98.00;;;;;;5033810;28;20492;-63
2023/07/26 07:16:12;;;;;;;6.70;3.83;;;16.50;98.00;;;;;;5051558;28;20453;-63
2023/07/26 07:18:39;;;;;;;6.43;3.60;;;16.70;98.00;;;;;;5051372;28;20459;-63
2023/07/26 07:21:06;;;;;;;7.60;3.33;;;16.70;98.00;;;;;;5017382;28;20835;-63
2023/07/26 07:23:36;;;;;;;5.97;3.47;;;16.70;98.00;;;;;;5051347;28;20464;-63
2023/07/26 07:26:03;;;;;;;5.63;3.93;;;16.70;98.00;;;;;;5051259;28;20830;-64
2023/07/26 07:28:31;;;;;;;7.87;4.00;;;16.70;98.00;;;;;;5051319;28;20922;-63
2023/07/26 07:30:58;;;;;;;6.97;3.77;;;16.90;98.00;;;;;;5054209;28;20457;-63
2023/07/26 07:33:25;;;;;;;6.73;3.53;;;16.90;98.00;;;;;;5244088;22;20486;-63
2023/07/26 07:35:52;;;;;;;4.07;3.10;;;17.10;98.00;;;;;;5033687;28;20464;-63
2023/07/26 07:38:19;;;;;;;5.93;3.73;;;17.10;98.00;;;;;;4999942;28;20983;-63
2023/07/26 07:40:48;;;;;;;5.67;3.60;;;17.00;98.00;;;;;;5043820;28;20956;-63
2023/07/26 07:43:15;;;;;;;4.60;3.20;;;17.00;98.00;;;;;;5053913;28;20457;-63
2023/07/26 07:45:43;;;;;;;4.80;3.43;;;17.00;98.00;;;;;;5054052;28;20469;-63
2023/07/26 07:48:10;;;;;;;5.87;3.30;;;17.00;98.00;;;;;;5053885;28;20465;-63
2023/07/26 07:50:37;;;;;;;5.73;3.80;;;16.90;98.00;;;;;;5053834;28;20551;-62
2023/07/26 07:53:06;;;;;;;14.40;4.17;;;16.90;98.00;;;;;;5053627;28;20539;-63
2023/07/26 07:55:34;;;;;;;7.00;3.50;;;16.90;98.00;;;;;;5053782;28;20465;-62
2023/07/26 07:58:04;;;;;;;5.37;3.60;;;16.70;98.00;;;;;;5053936;28;20964;-63
2023/07/26 08:00:31;;;;;;;6.13;3.80;;;16.40;98.00;;;;;;5036016;28;20455;-63
2023/07/26 08:02:58;;;;;;;7.60;3.50;;;16.20;98.00;;;;;;5054329;28;20519;-63
2023/07/26 08:05:27;;;;;;;7.93;3.80;;;16.20;98.00;;;;;;5052072;28;21034;-63
2023/07/26 08:07:54;;;;;;;8.97;3.53;;;16.20;98.00;;;;;;5034014;28;20901;-63
2023/07/26 08:10:21;;;;;;;6.30;3.53;;;16.00;98.00;;;;;;5053757;28;20449;-63
2023/07/26 08:12:48;;;;;;;5.77;3.57;;;15.90;98.00;;;;;;5053484;28;20456;-63
2023/07/26 08:15:17;;;;;;;7.93;3.90;;;15.90;98.00;;;;;;5052790;28;20457;-63
2023/07/26 08:17:44;;;;;;;6.00;3.47;;;15.90;98.00;;;;;;5053483;28;20459;-63
2023/07/26 08:20:12;;;;;;;6.00;3.70;;;15.90;98.00;;;;;;5053514;28;20453;-63
2023/07/26 08:22:39;;;;;;;6.90;3.90;;;16.00;98.00;;;;;;5053539;28;20548;-62
2023/07/26 08:25:08;;;;;;;7.20;3.97;;;16.20;98.00;;;;;;5053372;28;20451;-62
2023/07/26 08:27:35;;;;;;;5.57;3.47;;;16.40;98.00;;;;;;5053344;28;20449;-62
2023/07/26 08:30:02;;;;;;;6.43;3.83;;;16.40;98.00;;;;;;5053410;28;20488;-63
2023/07/26 08:32:31;;;;;;;6.37;3.90;;;16.50;98.00;;;;;;5053437;28;20496;-63
2023/07/26 08:34:58;;;;;;;9.07;3.83;;;16.60;98.00;;;;;;5052855;28;20492;-63
2023/07/26 08:37:25;;;;;;;8.03;3.93;;;16.70;98.00;;;;;;5019100;28;20460;-63
2023/07/26 08:39:52;;;;;;;8.60;4.00;;;16.80;98.00;;;;;;5053058;28;20452;-63
2023/07/26 08:42:19;;;;;;;6.20;3.73;;;16.80;98.00;;;;;;5053257;28;20522;-63
2023/07/26 08:44:50;;;;;;;5.60;3.63;;;16.70;98.00;;;;;;5053057;28;20521;-63
2023/07/26 08:47:18;;;;;;;4.60;3.27;;;16.70;98.00;;;;;;5052978;28;20467;-63
2023/07/26 08:49:47;;;;;;;4.60;3.40;;;16.70;98.00;;;;;;5052795;28;20447;-63
2023/07/26 08:52:15;;;;;;;6.63;4.20;;;16.80;98.00;;;;;;5052978;28;20476;-63
2023/07/26 08:54:48;;;;;;;5.13;3.73;;;16.70;98.00;;;;;;5052752;28;20482;-63
2023/07/26 08:57:16;;;;;;;8.30;4.67;;;16.60;98.00;;;;;;5035410;28;20556;-63
2023/07/26 08:59:43;;;;;;;7.30;4.37;;;16.70;98.00;;;;;;5052775;28;20488;-63
2023/07/26 09:02:13;;;;;;;7.53;4.00;;;16.70;98.00;;;;;;5052982;28;20493;-64
2023/07/26 09:04:40;;;;;;;6.57;3.93;;;16.80;98.00;;;;;;5052702;28;20968;-63
2023/07/26 09:07:09;;;;;;;5.77;3.73;;;16.90;98.00;;;;;;5052466;28;20465;-63
2023/07/26 09:09:37;;;;;;;4.90;3.10;;;16.90;98.00;;;;;;5052404;28;20457;-63
2023/07/26 09:12:04;;;;;;;4.90;3.30;;;17.10;98.00;;;;;;5052814;28;21063;-63
2023/07/26 09:14:33;;;;;;;4.63;3.20;;;17.10;98.00;;;;;;5052780;28;20492;-63
2023/07/26 09:17:04;;;;;;;5.57;3.30;;;17.10;98.00;;;;;;5052582;28;20857;-63
2023/07/26 09:19:33;;;;;;;5.40;3.03;;;17.10;98.00;;;;;;5018884;28;20458;-63
2023/07/26 09:22:02;;;;;;;5.00;2.90;;;17.20;98.00;;;;;;5020717;28;20461;-63
2023/07/26 09:24:33;;;;;;;3.40;2.50;;;17.10;98.00;;;;;;5016831;28;20494;-63
2023/07/26 09:27:06;;;;;;;3.90;2.77;;;17.10;98.00;;;;;;5012963;28;20880;-63
2023/07/26 09:29:33;;;;;;;3.27;2.30;;;17.10;98.00;;;;;;5012426;28;20463;-63
2023/07/26 09:32:00;;;;;;;3.10;2.00;;;16.90;98.00;;;;;;5012217;28;20486;-63
2023/07/26 09:34:29;;;;;;;2.67;2.20;;;16.80;98.00;;;;;;5012023;28;20505;-63
2023/07/26 09:36:57;;;;;;;3.50;2.30;;;16.70;98.00;;;;;;5024447;28;20450;-63
2023/07/26 09:39:26;;;;;;;3.20;2.20;;;16.60;98.00;;;;;;5032023;28;20466;-63
2023/07/26 09:42:09;;;;;;;3.27;2.07;;;16.70;98.00;;;;;;5032020;28;20523;-63
2023/07/26 09:44:37;;;;;;;2.90;2.20;;;16.80;98.00;;;;;;5050492;28;20557;-63
2023/07/26 09:47:06;;;;;;;4.10;2.30;;;16.90;98.00;;;;;;5052294;28;20458;-63
2023/07/26 09:49:34;;;;;;;2.20;1.87;;;16.90;98.00;;;;;;5026808;28;20470;-63
2023/07/26 09:52:02;;;;;;;3.53;2.30;;;17.00;98.00;;;;;;5032097;28;20862;-63
2023/07/26 09:54:31;;;;;;;2.40;1.97;;;17.10;98.00;;;;;;5032331;28;20894;-63
2023/07/26 09:56:59;;;;;;;2.70;1.90;;;17.30;98.00;;;;;;5032120;28;20976;-63
2023/07/26 09:59:29;;;;;;;2.67;2.10;;;17.20;98.00;;;;;;5032554;28;20861;-63
2023/07/26 10:02:00;;;;;;;2.23;1.80;;;17.10;98.00;;;;;;5032167;28;20524;-63
2023/07/26 10:04:33;;;;;;;2.23;1.77;;;17.30;98.00;;;;;;5032304;28;20466;-63
2023/07/26 10:07:04;;;;;;;5.93;1.63;;;17.40;98.00;;;;;;5032046;28;20542;-63
2023/07/26 10:09:32;;;;;;;2.27;1.87;;;17.40;98.00;;;;;;5034806;28;20446;-63
2023/07/26 10:12:02;;;;;;;2.40;1.47;;;17.40;98.00;;;;;;5034224;28;20458;-63
2023/07/26 10:14:33;;;;;;;1.80;1.70;;;17.40;98.00;;;;;;5051886;28;20575;-64
2023/07/26 10:17:01;;;;;;;2.53;1.80;;;17.50;98.00;;;;;;5052056;28;20465;-63
2023/07/26 10:19:29;;;;;;;1.80;1.70;;;17.60;98.00;;;;;;5052016;28;20465;-63
2023/07/26 10:21:57;;;;;;;2.00;1.60;;;17.50;98.00;;;;;;5052363;28;20867;-63
2023/07/26 10:24:26;;;;;;;2.30;1.67;;;17.40;98.00;;;;;;5052045;28;20450;-63
2023/07/26 10:26:54;;;;;;;1.60;1.50;;;17.40;98.00;;;;;;5051984;28;20454;-63
2023/07/26 10:29:21;;;;;;;2.17;1.70;;;17.30;98.00;;;;;;5052118;28;20461;-63
2023/07/26 10:32:01;;;;;;;2.83;1.90;;;17.30;98.00;;;;;;5052078;28;20453;-63
2023/07/26 10:34:28;;;;;;;2.00;1.70;;;17.00;98.00;;;;;;5051438;28;20588;-63
2023/07/26 10:37:29;;;;;;;3.40;1.70;;;17.00;98.00;;;;;;5051929;28;20587;-62
2023/07/26 10:39:56;;;;;;;3.60;2.20;;;16.90;98.00;;;;;;5051320;28;20446;-64
2023/07/26 10:42:25;;;;;;;1.73;1.70;;;17.10;98.00;;;;;;5034480;28;20511;-63
2023/07/26 10:44:54;;;;;;;2.27;1.90;;;17.30;98.00;;;;;;5052168;28;20464;-63
2023/07/26 10:47:23;;;;;;;2.67;2.00;;;17.40;98.00;;;;;;5034127;28;20527;-63
2023/07/26 10:49:51;;;;;;;2.63;2.00;;;17.40;98.00;;;;;;5051506;28;20461;-63
2023/07/26 10:52:18;;;;;;;2.40;1.90;;;17.50;98.00;;;;;;5033810;28;20457;-63
2023/07/26 10:54:48;;;;;;;2.30;2.10;;;17.40;98.00;;;;;;5033495;28;20519;-63
2023/07/26 10:57:21;;;;;;;2.47;1.80;;;17.40;98.00;;;;;;5017585;28;20461;-63
2023/07/26 11:00:10;;;;;;;2.70;2.17;;;17.60;98.00;;;;;;5051702;28;20951;-63
2023/07/26 11:02:42;;;;;;;2.60;2.03;;;17.70;98.00;;;;;;5051514;28;20714;-63
2023/07/26 11:05:12;;;;;;;2.33;2.10;;;17.60;98.00;;;;;;5055373;28;20456;-63
2023/07/26 11:07:53;;;;;;;3.40;2.10;;;17.70;98.00;;;;;;5055718;28;20468;-63
2023/07/26 11:10:22;;;;;;;3.00;2.20;;;17.90;98.00;;;;;;5055609;28;20519;-63
2023/07/26 11:12:50;;;;;;;2.30;2.00;;;17.90;98.00;;;;;;5055553;28;20572;-63
2023/07/26 11:15:28;;;;;;;5.03;2.37;;;17.90;98.00;;;;;;5037724;28;20576;-63
2023/07/26 11:17:56;;;;;;;3.03;2.07;;;18.00;98.00;;;;;;5055449;28;20456;-63
2023/07/26 11:20:24;;;;;;;3.40;2.20;;;18.00;98.00;;;;;;5055596;28;20924;-63
2023/07/26 11:22:51;;;;;;;3.20;2.33;;;18.10;98.00;;;;;;5037892;28;20982;-63
2023/07/26 11:25:19;;;;;;;3.00;2.20;;;18.20;98.00;;;;;;5055566;28;20484;-63
2023/07/26 11:27:48;;;;;;;4.20;2.60;;;18.30;98.00;;;;;;5055467;28;20458;-63
2023/07/26 11:30:17;;;;;;;3.37;2.50;;;18.30;98.00;;;;;;5043176;28;20844;-63
2023/07/26 11:32:45;;;;;;;3.47;2.27;;;18.50;98.00;;;;;;5020366;28;20937;-63
2023/07/26 11:35:15;;;;;;;4.70;2.40;;;18.50;98.00;;;;;;5015709;28;20562;-63
2023/07/26 11:37:51;;;;;;;3.33;2.47;;;18.70;98.00;;;;;;4998237;28;20459;-63
2023/07/26 11:40:19;;;;;;;3.53;2.60;;;18.70;98.00;;;;;;5015798;28;20489;-64
2023/07/26 11:42:46;;;;;;;3.50;2.53;;;18.60;98.00;;;;;;4998362;28;20460;-64
2023/07/26 11:45:16;;;;;;;3.33;2.40;;;18.80;98.00;;;;;;5015530;28;20455;-64
2023/07/26 11:47:44;;;;;;;3.20;2.60;;;19.00;98.00;;;;;;4997602;28;20463;-63
2023/07/26 11:50:19;;;;;;;2.80;2.20;;;19.10;98.00;;;;;;5015141;28;20456;-63
2023/07/26 11:53:01;;;;;;;2.93;2.30;;;19.20;98.00;;;;;;5014952;28;20443;-64
2023/07/26 11:55:29;;;;;;;2.83;2.20;;;19.20;98.00;;;;;;5015050;28;20483;-63
2023/07/26 11:57:56;;;;;;;4.40;2.77;;;19.30;98.00;;;;;;5015082;28;20459;-63
2023/07/26 12:00:23;;;;;;;5.83;2.90;;;19.30;98.00;;;;;;4997678;28;20954;-63
2023/07/26 12:02:50;;;;;;;3.50;2.50;;;19.80;98.00;;;;;;5014866;28;20474;-63
2023/07/26 12:05:22;;;;;;;7.77;2.83;;;20.40;98.00;;;;;;4996994;28;20463;-63
2023/07/26 12:07:52;;;;;;;5.27;2.60;;;20.70;98.00;;;;;;5014936;28;20880;-63
2023/07/26 12:10:28;;;;;;;5.20;2.60;;;21.10;98.00;;;;;;5014863;28;20873;-62
2023/07/26 12:12:56;;;;;;;3.60;2.37;;;21.20;98.00;;;;;;5014838;28;20971;-62
2023/07/26 12:15:23;;;;;;;3.63;2.60;;;21.20;98.00;;;;;;5013780;28;20983;-63
2023/07/26 12:17:59;;;;;;;4.23;2.30;;;21.00;98.00;;;;;;5014463;28;20455;-63
2023/07/26 12:20:29;;;;;;;2.70;2.30;;;20.70;98.00;;;;;;5014508;28;20470;-62
2023/07/26 12:22:58;;;;;;;5.37;2.83;;;20.00;98.00;;;;;;5014210;28;20480;-63
2023/07/26 12:25:34;;;;;;;4.53;2.50;;;19.90;98.00;;;;;;5012496;28;20451;-63
2023/07/26 12:28:02;;;;;;;4.93;2.93;;;20.00;98.00;;;;;;5012911;28;20490;-62
2023/07/26 12:30:29;;;;;;;3.33;2.33;;;20.10;98.00;;;;;;5012666;28;20838;-62
2023/07/26 12:33:12;;;;;;;3.73;2.60;;;20.30;98.00;;;;;;5012522;28;20456;-62
2023/07/26 12:35:44;;;;;;;6.97;2.90;;;21.00;98.00;;;;;;4995208;28;20486;-62
2023/07/26 12:38:12;;;;;;;3.80;2.50;;;21.20;98.00;;;;;;5012754;28;20461;-63
2023/07/26 12:40:40;;;;;;;2.90;2.23;;;21.50;98.00;;;;;;5014441;28;20460;-63
2023/07/26 12:43:23;;;;;;;3.90;2.50;;;22.00;98.00;;;;;;5014098;28;20462;-63
2023/07/26 12:45:50;;;;;;;4.03;2.63;;;21.70;98.00;;;;;;5014139;28;20487;-63
2023/07/26 12:48:17;;;;;;;3.13;2.27;;;21.60;98.00;;;;;;5014065;28;20464;-63
2023/07/26 12:50:46;;;;;;;2.53;2.20;;;21.40;98.00;;;;;;5014183;28;20459;-62